createdAt,value
2023-02-17T00:01:38.845Z,101491.81
2023-02-17T00:04:07.361Z,101490.03
2023-02-17T00:06:36.901Z,101487.44
2023-02-17T00:09:05.469Z,101489.13
2023-02-17T00:11:33.993Z,101490.88
2023-02-17T00:14:02.186Z,101489.13
2023-02-17T00:16:31.171Z,101487.41
2023-02-17T00:19:01.396Z,101483.88
2023-02-17T00:21:32.990Z,101489.97
2023-02-17T00:24:02.595Z,101493.44
2023-02-17T00:26:30.799Z,101496.06
2023-02-17T00:29:00.076Z,101494.22
2023-02-17T00:31:28.918Z,101495.91
2023-02-17T00:33:59.919Z,101501.97
2023-02-17T00:36:30.008Z,101492.25
2023-02-17T00:38:59.880Z,101499.22
2023-02-17T00:41:30.843Z,101486.84
2023-02-17T00:43:59.483Z,101517.34
2023-02-17T00:46:28.576Z,101498.81
2023-02-17T00:48:57.655Z,101494.41
2023-02-17T00:51:26.781Z,101496.06
2023-02-17T00:53:55.327Z,101487.28
2023-02-17T00:56:23.874Z,101478.44
2023-02-17T00:58:53.522Z,101487.19
2023-02-17T01:01:21.788Z,101478.41
2023-02-17T01:03:50.091Z,101470.50
2023-02-17T01:06:25.662Z,101486.25
2023-02-17T01:08:54.736Z,101479.22
2023-02-17T01:11:25.999Z,101480.09
2023-02-17T01:13:56.967Z,101487.16
2023-02-17T01:16:28.534Z,101491.53
2023-02-17T01:18:59.877Z,101493.34
2023-02-17T01:21:30.328Z,101488.97
2023-02-17T01:24:02.117Z,101489.81
2023-02-17T01:26:34.054Z,101488.06
2023-02-17T01:29:06.613Z,101491.56
2023-02-17T01:31:35.289Z,101497.69
2023-02-17T01:34:06.042Z,101496.88
2023-02-17T01:36:34.795Z,101501.22
2023-02-17T01:39:03.318Z,101490.72
2023-02-17T01:41:31.708Z,101502.97
2023-02-17T01:44:15.671Z,101486.38
2023-02-17T01:46:46.432Z,101489.84
2023-02-17T01:49:28.427Z,101485.47
2023-02-17T01:52:04.410Z,101487.28
2023-02-17T01:54:41.542Z,101473.28
2023-02-17T01:57:12.779Z,101480.31
2023-02-17T01:59:43.547Z,101485.56
2023-02-17T02:02:12.442Z,101481.22
2023-02-17T02:04:46.976Z,101469.88
2023-02-17T02:07:21.278Z,101474.25
2023-02-17T02:09:54.187Z,101469.00
2023-02-17T02:12:25.899Z,101471.59
2023-02-17T02:14:59.606Z,101467.19
2023-02-17T02:17:37.440Z,101461.06
2023-02-17T02:20:36.246Z,101454.94
2023-02-17T02:23:37.032Z,101449.75
2023-02-17T02:26:39.861Z,101436.63
2023-02-17T02:29:47.089Z,101438.34
2023-02-17T02:32:55.176Z,101427.84
2023-02-17T02:35:29.516Z,101425.28
2023-02-17T02:38:06.896Z,101410.41
2023-02-17T02:40:42.206Z,101405.19
2023-02-17T02:43:11.259Z,101408.72
2023-02-17T02:45:39.822Z,101406.94
2023-02-17T02:48:09.790Z,101396.44
2023-02-17T02:51:17.607Z,101404.34
2023-02-17T02:54:15.620Z,101398.22
2023-02-17T02:57:02.108Z,101388.59
2023-02-17T02:59:45.153Z,101391.22
2023-02-17T03:02:24.286Z,101398.22
2023-02-17T03:05:02.314Z,101391.22
2023-02-17T03:07:36.754Z,101392.97
2023-02-17T03:10:06.800Z,101382.50
2023-02-17T03:12:38.234Z,101384.22
2023-02-17T03:15:15.220Z,101380.72
2023-02-17T03:17:43.814Z,101381.63
2023-02-17T03:20:15.018Z,101375.53
2023-02-17T03:22:46.681Z,101380.81
2023-02-17T03:25:17.760Z,101377.38
2023-02-17T03:27:46.430Z,101373.88
2023-02-17T03:30:16.562Z,101376.50
2023-02-17T03:32:44.887Z,101377.41
2023-02-17T03:35:14.860Z,101385.28
2023-02-17T03:37:43.450Z,101393.16
2023-02-17T03:40:12.338Z,101375.59
2023-02-17T03:42:40.875Z,101382.63
2023-02-17T03:45:10.107Z,101389.59
2023-02-17T03:47:38.412Z,101397.47
2023-02-17T03:50:08.451Z,101396.56
2023-02-17T03:52:38.470Z,101384.28
2023-02-17T03:55:07.591Z,101392.97
2023-02-17T03:57:36.113Z,101391.19
2023-02-17T04:00:05.549Z,101383.31
2023-02-17T04:02:44.012Z,101386.78
2023-02-17T04:05:12.761Z,101395.56
2023-02-17T04:07:42.422Z,101397.28
2023-02-17T04:10:11.902Z,101391.19
2023-02-17T04:12:40.235Z,101387.72
2023-02-17T04:15:09.416Z,101395.56
2023-02-17T04:17:38.664Z,101389.41
2023-02-17T04:20:09.018Z,101387.69
2023-02-17T04:22:37.612Z,101388.56
2023-02-17T04:25:07.628Z,101399.91
2023-02-17T04:27:36.146Z,101401.63
2023-02-17T04:30:04.851Z,101402.50
2023-02-17T04:32:33.374Z,101405.13
2023-02-17T04:35:01.910Z,101407.75
2023-02-17T04:37:30.468Z,101409.47
2023-02-17T04:39:58.955Z,101413.00
2023-02-17T04:42:28.605Z,101406.81
2023-02-17T04:44:57.086Z,101402.44
2023-02-17T04:47:25.619Z,101398.09
2023-02-17T04:49:53.841Z,101400.72
2023-02-17T04:52:22.420Z,101399.88
2023-02-17T04:54:50.933Z,101403.41
2023-02-17T04:57:19.516Z,101404.31
2023-02-17T04:59:49.085Z,101397.28
2023-02-17T05:02:18.420Z,101392.97
2023-02-17T05:04:46.989Z,101401.72
2023-02-17T05:07:15.595Z,101400.00
2023-02-17T05:09:44.081Z,101409.63
2023-02-17T05:12:12.733Z,101407.88
2023-02-17T05:14:41.409Z,101404.38
2023-02-17T05:17:11.051Z,101393.88
2023-02-17T05:19:39.533Z,101402.66
2023-02-17T05:22:08.092Z,101407.06
2023-02-17T05:24:38.542Z,101398.34
2023-02-17T05:27:07.369Z,101413.22
2023-02-17T05:29:35.842Z,101406.22
2023-02-17T05:32:04.438Z,101405.38
2023-02-17T05:34:34.306Z,101416.75
2023-02-17T05:37:02.870Z,101417.63
2023-02-17T05:39:31.558Z,101417.63
2023-02-17T05:42:00.096Z,101403.66
2023-02-17T05:44:28.953Z,101408.88
2023-02-17T05:46:57.488Z,101408.88
2023-02-17T05:49:25.797Z,101417.63
2023-02-17T05:51:55.358Z,101416.75
2023-02-17T05:54:23.662Z,101419.41
2023-02-17T05:56:52.212Z,101411.53
2023-02-17T05:59:21.022Z,101429.06
2023-02-17T06:01:49.546Z,101428.19
2023-02-17T06:04:19.523Z,101424.69
2023-02-17T06:06:48.099Z,101424.69
2023-02-17T06:09:17.642Z,101429.94
2023-02-17T06:11:46.109Z,101429.97
2023-02-17T06:14:14.348Z,101428.25
2023-02-17T06:16:42.882Z,101426.50
2023-02-17T06:19:11.466Z,101426.50
2023-02-17T06:21:42.385Z,101423.00
2023-02-17T06:24:10.969Z,101423.88
2023-02-17T06:26:40.538Z,101429.97
2023-02-17T06:29:09.006Z,101425.63
2023-02-17T06:31:37.779Z,101418.59
2023-02-17T06:34:07.025Z,101425.63
2023-02-17T06:36:35.501Z,101415.13
2023-02-17T06:39:04.075Z,101422.09
2023-02-17T06:41:32.588Z,101421.22
2023-02-17T06:44:02.404Z,101428.25
2023-02-17T06:46:31.276Z,101429.97
2023-02-17T06:49:00.050Z,101429.09
2023-02-17T06:51:29.244Z,101427.34
2023-02-17T06:53:57.784Z,101435.22
2023-02-17T06:56:26.273Z,101436.97
2023-02-17T06:58:54.472Z,101436.97
2023-02-17T07:01:26.808Z,101442.22
2023-02-17T07:03:55.838Z,101445.72
2023-02-17T07:06:25.361Z,101446.59
2023-02-17T07:08:54.062Z,101443.97
2023-02-17T07:11:22.605Z,101445.66
2023-02-17T07:13:51.194Z,101459.66
2023-02-17T07:16:19.695Z,101459.63
2023-02-17T07:18:49.319Z,101456.13
2023-02-17T07:21:17.830Z,101468.34
2023-02-17T07:23:46.322Z,101463.97
2023-02-17T07:26:16.062Z,101470.06
2023-02-17T07:28:44.818Z,101477.06
2023-02-17T07:31:15.680Z,101475.28
2023-02-17T07:33:45.400Z,101483.97
2023-02-17T07:36:17.734Z,101477.88
2023-02-17T07:38:46.457Z,101471.72
2023-02-17T07:41:17.162Z,101475.13
2023-02-17T07:43:46.698Z,101476.00
2023-02-17T07:46:18.684Z,101478.56
2023-02-17T07:48:47.811Z,101466.31
2023-02-17T07:51:20.654Z,101459.25
2023-02-17T07:53:49.923Z,101459.25
2023-02-17T07:56:21.431Z,101468.00
2023-02-17T07:58:50.194Z,101460.97
2023-02-17T08:01:21.102Z,101471.44
2023-02-17T08:03:50.275Z,101472.25
2023-02-17T08:06:22.151Z,101476.63
2023-02-17T08:09:09.731Z,101482.72
2023-02-17T08:11:56.085Z,101479.19
2023-02-17T08:14:27.329Z,101464.28
2023-02-17T08:16:55.825Z,101493.97
2023-02-17T08:19:27.185Z,101479.06
2023-02-17T08:22:00.030Z,101475.53
2023-02-17T08:24:28.838Z,101467.66
2023-02-17T08:26:57.368Z,101453.66
2023-02-17T08:29:25.789Z,101465.06
2023-02-17T08:31:54.696Z,101467.69
2023-02-17T08:34:23.350Z,101464.22
2023-02-17T08:36:51.856Z,101465.97
2023-02-17T08:39:21.441Z,101464.25
2023-02-17T08:41:50.136Z,101447.63
2023-02-17T08:44:20.865Z,101441.47
2023-02-17T08:46:51.153Z,101465.06
2023-02-17T08:49:22.171Z,101455.44
2023-02-17T08:51:51.556Z,101467.69
2023-02-17T08:54:21.331Z,101457.28
2023-02-17T08:56:49.902Z,101456.47
2023-02-17T08:59:18.501Z,101448.59
2023-02-17T09:01:47.074Z,101450.31
2023-02-17T09:04:16.930Z,101446.72
2023-02-17T09:06:48.931Z,101455.44
2023-02-17T09:09:20.013Z,101450.19
2023-02-17T09:11:50.671Z,101455.47
2023-02-17T09:14:19.173Z,101462.53
2023-02-17T09:16:47.675Z,101463.41
2023-02-17T09:19:16.288Z,101466.84
2023-02-17T09:21:44.536Z,101466.84
2023-02-17T09:24:13.125Z,101471.13
2023-02-17T09:26:41.912Z,101477.22
2023-02-17T09:29:11.918Z,101477.13
2023-02-17T09:31:40.565Z,101475.31
2023-02-17T09:34:08.906Z,101472.59
2023-02-17T09:36:42.202Z,101456.78
2023-02-17T09:39:13.777Z,101453.25
2023-02-17T09:41:47.199Z,101454.97
2023-02-17T09:44:23.661Z,101461.94
2023-02-17T09:47:02.568Z,101457.44
2023-02-17T09:49:39.605Z,101461.78
2023-02-17T09:52:14.105Z,101453.00
2023-02-17T09:54:54.768Z,101467.00
2023-02-17T09:57:28.950Z,101472.19
2023-02-17T10:00:05.412Z,101479.19
2023-02-17T10:02:48.157Z,101486.16
2023-02-17T10:05:22.210Z,101501.91
2023-02-17T10:07:56.457Z,101494.84
2023-02-17T10:10:32.394Z,101479.88
2023-02-17T10:13:03.397Z,101493.03
2023-02-17T10:15:40.040Z,101491.22
2023-02-17T10:18:17.151Z,101490.34
2023-02-17T10:20:53.498Z,101496.47
2023-02-17T10:23:24.321Z,101504.56
2023-02-17T10:26:13.974Z,101510.84
2023-02-17T10:28:53.137Z,101512.72
2023-02-17T10:31:37.943Z,101519.78
2023-02-17T10:34:14.801Z,101517.06
2023-02-17T10:36:56.654Z,101510.03
2023-02-17T10:39:45.231Z,101512.59
2023-02-17T10:42:22.519Z,101512.44
2023-02-17T10:44:53.667Z,101502.72
2023-02-17T10:47:23.929Z,101507.00
2023-02-17T10:49:55.889Z,101499.06
2023-02-17T10:52:33.238Z,101498.13
2023-02-17T10:55:20.965Z,101509.44
2023-02-17T10:57:56.384Z,101501.44
2023-02-17T11:00:26.658Z,101494.31
2023-02-17T11:02:56.255Z,101493.34
2023-02-17T11:05:28.028Z,101490.66
2023-02-17T11:07:58.961Z,101491.41
2023-02-17T11:10:30.721Z,101491.41
2023-02-17T11:12:59.704Z,101495.75
2023-02-17T11:15:32.808Z,101492.22
2023-02-17T11:18:10.756Z,101505.34
2023-02-17T11:20:39.891Z,101499.22
2023-02-17T11:23:24.516Z,101485.19
2023-02-17T11:26:03.931Z,101494.84
2023-02-17T11:28:32.594Z,101483.44
2023-02-17T11:31:02.929Z,101482.53
2023-02-17T11:33:35.786Z,101474.63
2023-02-17T11:36:06.372Z,101493.91
2023-02-17T11:38:44.782Z,101479.84
2023-02-17T11:41:14.495Z,101464.91
2023-02-17T11:43:54.553Z,101455.19
2023-02-17T11:46:41.489Z,101456.94
2023-02-17T11:50:04.841Z,101449.00
2023-02-17T11:52:54.620Z,101455.06
2023-02-17T11:55:30.572Z,101454.97
2023-02-17T11:58:20.308Z,101460.09
2023-02-17T12:01:01.691Z,101472.22
2023-02-17T12:03:53.592Z,101472.13
2023-02-17T12:06:34.710Z,101468.53
2023-02-17T12:09:17.304Z,101468.47
2023-02-17T12:11:59.225Z,101463.97
2023-02-17T12:14:54.021Z,101470.94
2023-02-17T12:17:36.447Z,101462.94
2023-02-17T12:20:19.643Z,101455.81
2023-02-17T12:23:10.531Z,101464.50
2023-02-17T12:25:43.908Z,101477.47
2023-02-17T12:28:36.983Z,101506.38
2023-02-17T12:31:20.545Z,101464.09
2023-02-17T12:33:59.682Z,101475.38
2023-02-17T12:36:33.169Z,101469.09
2023-02-17T12:39:12.623Z,101486.50
2023-02-17T12:41:46.660Z,101459.06
2023-02-17T12:44:19.804Z,101458.91
2023-02-17T12:46:52.745Z,101447.28
2023-02-17T12:49:26.302Z,101445.41
2023-02-17T12:52:00.006Z,101432.22
2023-02-17T12:54:36.419Z,101445.34
2023-02-17T12:57:15.225Z,101432.16
2023-02-17T12:59:46.534Z,101425.97
2023-02-17T13:02:17.894Z,101430.47
2023-02-17T13:04:52.544Z,101412.13
2023-02-17T13:07:39.947Z,101418.41
2023-02-17T13:10:28.254Z,101409.81
2023-02-17T13:13:01.526Z,101414.25
2023-02-17T13:15:35.325Z,101405.56
2023-02-17T13:18:07.338Z,101414.38
2023-02-17T13:20:55.842Z,101416.25
2023-02-17T13:23:42.983Z,101386.50
2023-02-17T13:26:29.658Z,101399.75
2023-02-17T13:29:34.293Z,101424.38
2023-02-17T13:32:06.002Z,101402.47
2023-02-17T13:34:37.128Z,101420.03
2023-02-17T13:37:26.516Z,101422.72
2023-02-17T13:39:55.202Z,101406.97
2023-02-17T13:42:41.183Z,101415.81
2023-02-17T13:45:22.860Z,101400.84
2023-02-17T13:47:54.414Z,101421.94
2023-02-17T13:50:33.490Z,101413.13
2023-02-17T13:53:02.712Z,101406.97
2023-02-17T13:55:31.288Z,101407.72
2023-02-17T13:58:01.292Z,101425.28
2023-02-17T14:00:32.324Z,101411.22
2023-02-17T14:03:17.004Z,101447.19
2023-02-17T14:05:47.676Z,101388.34
2023-02-17T14:08:20.970Z,101413.84
2023-02-17T14:10:49.710Z,101403.31
2023-02-17T14:13:19.853Z,101392.78
2023-02-17T14:15:55.630Z,101406.00
2023-02-17T14:18:34.491Z,101376.16
2023-02-17T14:21:09.408Z,101390.25
2023-02-17T14:23:47.927Z,101381.50
2023-02-17T14:26:30.498Z,101365.78
2023-02-17T14:29:03.383Z,101376.38
2023-02-17T14:31:37.848Z,101394.00
2023-02-17T14:34:06.774Z,101394.09
2023-02-17T14:36:37.707Z,101367.75
2023-02-17T14:39:09.252Z,101373.00
2023-02-17T14:41:37.820Z,101371.22
2023-02-17T14:44:07.560Z,101368.56
2023-02-17T14:46:36.649Z,101372.13
2023-02-17T14:49:05.404Z,101362.41
2023-02-17T14:51:37.500Z,101372.97
2023-02-17T14:54:14.332Z,101373.88
2023-02-17T14:56:47.474Z,101362.50
2023-02-17T14:59:17.121Z,101371.31
2023-02-17T15:01:45.373Z,101365.19
2023-02-17T15:04:13.879Z,101371.41
2023-02-17T15:06:44.654Z,101368.75
2023-02-17T15:09:16.503Z,101374.94
2023-02-17T15:11:48.889Z,101354.81
2023-02-17T15:14:21.962Z,101358.38
2023-02-17T15:16:50.811Z,101370.69
2023-02-17T15:19:19.042Z,101376.88
2023-02-17T15:21:50.550Z,101397.09
2023-02-17T15:24:26.489Z,101384.84
2023-02-17T15:26:57.229Z,101389.28
2023-02-17T15:29:28.227Z,101403.34
2023-02-17T15:32:00.259Z,101402.50
2023-02-17T15:34:31.884Z,101403.41
2023-02-17T15:37:01.540Z,101394.59
2023-02-17T15:39:30.258Z,101394.69
2023-02-17T15:42:06.040Z,101390.28
2023-02-17T15:44:43.160Z,101398.22
2023-02-17T15:47:16.985Z,101399.13
2023-02-17T15:49:45.866Z,101393.03
2023-02-17T15:52:15.736Z,101392.09
2023-02-17T15:54:44.912Z,101393.03
2023-02-17T15:57:22.848Z,101411.47
2023-02-17T15:59:55.128Z,101399.22
2023-02-17T16:02:25.748Z,101381.69
2023-02-17T16:04:54.294Z,101392.22
2023-02-17T16:07:22.835Z,101375.56
2023-02-17T16:09:51.123Z,101373.81
2023-02-17T16:12:26.533Z,101384.34
2023-02-17T16:14:57.725Z,101386.16
2023-02-17T16:17:26.855Z,101381.78
2023-02-17T16:19:55.441Z,101423.03
2023-02-17T16:22:24.183Z,101387.03
2023-02-17T16:24:52.729Z,101409.00
2023-02-17T16:27:21.050Z,101392.31
2023-02-17T16:29:49.657Z,101395.84
2023-02-17T16:32:19.370Z,101391.47
2023-02-17T16:34:48.409Z,101395.00
2023-02-17T16:37:18.372Z,101409.97
2023-02-17T16:39:47.610Z,101410.88
2023-02-17T16:42:16.248Z,101413.53
2023-02-17T16:44:44.486Z,101410.03
2023-02-17T16:47:22.462Z,101414.50
2023-02-17T16:49:51.947Z,101419.81
2023-02-17T16:52:26.137Z,101410.16
2023-02-17T16:54:55.256Z,101419.88
2023-02-17T16:57:23.791Z,101421.59
2023-02-17T16:59:52.065Z,101430.38
2023-02-17T17:02:22.084Z,101432.19
2023-02-17T17:04:50.735Z,101451.50
2023-02-17T17:07:19.280Z,101444.50
2023-02-17T17:10:14.367Z,101469.94
2023-02-17T17:12:36.086Z,101446.31
2023-02-17T17:15:04.880Z,101443.69
2023-02-17T17:17:40.945Z,101448.94
2023-02-17T17:20:16.270Z,101461.25
2023-02-17T17:22:46.664Z,101455.06
2023-02-17T17:25:15.319Z,101456.84
2023-02-17T17:27:44.733Z,101457.72
2023-02-17T17:30:19.481Z,101445.53
2023-02-17T17:32:49.193Z,101444.84
2023-02-17T17:35:18.249Z,101434.38
2023-02-17T17:37:46.775Z,101446.75
2023-02-17T17:40:20.075Z,101448.63
2023-02-17T17:42:48.370Z,101437.28
2023-02-17T17:45:17.240Z,101445.25
2023-02-17T17:47:46.200Z,101433.94
2023-02-17T17:50:19.786Z,101439.19
2023-02-17T17:52:48.623Z,101436.63
2023-02-17T17:55:17.657Z,101438.38
2023-02-17T17:57:48.027Z,101443.63
2023-02-17T18:00:19.024Z,101437.47
2023-02-17T18:02:47.578Z,101427.81
2023-02-17T18:05:17.594Z,101448.84
2023-02-17T18:07:51.069Z,101441.75
2023-02-17T18:10:19.736Z,101453.13
2023-02-17T18:12:49.068Z,101454.84
2023-02-17T18:15:18.447Z,101456.56
2023-02-17T18:17:48.796Z,101467.03
2023-02-17T18:20:18.869Z,101483.69
2023-02-17T18:22:47.614Z,101483.69
2023-02-17T18:25:16.204Z,101498.56
2023-02-17T18:27:47.768Z,101490.66
2023-02-17T18:30:19.433Z,101500.22
2023-02-17T18:32:48.977Z,101508.03
2023-02-17T18:35:19.608Z,101497.47
2023-02-17T18:37:48.165Z,101500.91
2023-02-17T18:40:20.170Z,101499.13
2023-02-17T18:42:49.166Z,101507.81
2023-02-17T18:45:18.245Z,101506.03
2023-02-17T18:47:47.178Z,101499.88
2023-02-17T18:50:18.167Z,101510.34
2023-02-17T18:52:46.753Z,101512.94
2023-02-17T18:55:15.685Z,101514.66
2023-02-17T18:57:45.246Z,101519.88
2023-02-17T19:00:16.608Z,101526.81
2023-02-17T19:02:45.076Z,101517.94
2023-02-17T19:05:14.598Z,101517.88
2023-02-17T19:07:44.357Z,101517.81
2023-02-17T19:10:14.098Z,101524.84
2023-02-17T19:12:43.034Z,101520.44
2023-02-17T19:15:13.813Z,101518.66
2023-02-17T19:17:42.375Z,101526.50
2023-02-17T19:20:12.162Z,101526.50
2023-02-17T19:22:40.605Z,101527.34
2023-02-17T19:25:10.730Z,101517.66
2023-02-17T19:27:41.083Z,101526.38
2023-02-17T19:30:11.988Z,101521.97
2023-02-17T19:32:40.905Z,101532.56
2023-02-17T19:35:11.679Z,101525.66
2023-02-17T19:37:40.463Z,101529.19
2023-02-17T19:40:11.334Z,101545.91
2023-02-17T19:42:40.269Z,101544.97
2023-02-17T19:45:09.205Z,101537.91
2023-02-17T19:47:37.722Z,101530.00
2023-02-17T19:50:07.679Z,101531.75
2023-02-17T19:52:38.261Z,101537.88
2023-02-17T19:55:08.303Z,101528.22
2023-02-17T19:57:38.139Z,101539.59
2023-02-17T20:00:09.658Z,101540.47
2023-02-17T20:02:38.649Z,101544.81
2023-02-17T20:05:07.713Z,101538.69
2023-02-17T20:07:36.485Z,101544.81
2023-02-17T20:10:05.966Z,101524.66
2023-02-17T20:12:34.560Z,101536.91
2023-02-17T20:15:04.399Z,101543.03
2023-02-17T20:17:33.106Z,101532.50
2023-02-17T20:20:01.596Z,101536.84
2023-02-17T20:22:30.260Z,101537.69
2023-02-17T20:24:58.993Z,101543.88
2023-02-17T20:27:27.568Z,101550.88
2023-02-17T20:29:56.141Z,101540.34
2023-02-17T20:32:25.888Z,101547.34
2023-02-17T20:34:54.471Z,101542.06
2023-02-17T20:37:22.990Z,101552.59
2023-02-17T20:39:51.484Z,101554.38
2023-02-17T20:42:19.990Z,101551.72
2023-02-17T20:44:50.304Z,101545.59
2023-02-17T20:47:18.970Z,101541.25
2023-02-17T20:49:48.820Z,101543.88
2023-02-17T20:52:17.228Z,101542.13
2023-02-17T20:54:46.311Z,101552.66
2023-02-17T20:57:15.939Z,101550.06
2023-02-17T20:59:44.276Z,101554.47
2023-02-17T21:02:12.910Z,101549.22
2023-02-17T21:04:41.432Z,101551.84
2023-02-17T21:07:12.295Z,101563.25
2023-02-17T21:09:40.862Z,101559.75
2023-02-17T21:12:09.191Z,101569.38
2023-02-17T21:14:37.738Z,101571.09
2023-02-17T21:17:06.473Z,101561.41
2023-02-17T21:19:35.010Z,101569.31
2023-02-17T21:22:03.529Z,101564.94
2023-02-17T21:24:33.182Z,101567.59
2023-02-17T21:27:01.698Z,101563.19
2023-02-17T21:29:30.418Z,101571.13
2023-02-17T21:31:59.028Z,101568.50
2023-02-17T21:34:27.653Z,101589.56
2023-02-17T21:36:55.835Z,101572.06
2023-02-17T21:39:24.322Z,101568.56
2023-02-17T21:41:53.920Z,101566.78
2023-02-17T21:44:39.630Z,101562.44
2023-02-17T21:47:07.905Z,101565.06
2023-02-17T21:49:36.191Z,101575.59
2023-02-17T21:52:05.052Z,101569.47
2023-02-17T21:54:33.627Z,101577.38
2023-02-17T21:57:04.448Z,101578.28
2023-02-17T21:59:32.938Z,101572.16
2023-02-17T22:02:01.508Z,101575.72
2023-02-17T22:04:30.080Z,101577.44
2023-02-17T22:06:58.458Z,101574.81
2023-02-17T22:09:27.023Z,101573.94
2023-02-17T22:11:55.572Z,101577.50
2023-02-17T22:14:25.237Z,101586.25
2023-02-17T22:16:53.892Z,101579.22
2023-02-17T22:19:24.823Z,101573.94
2023-02-17T22:21:53.668Z,101580.13
2023-02-17T22:24:22.620Z,101577.50
2023-02-17T22:26:51.168Z,101574.88
2023-02-17T22:29:19.721Z,101575.72
2023-02-17T22:31:55.597Z,101574.00
2023-02-17T22:34:26.090Z,101570.47
2023-02-17T22:36:54.617Z,101567.84
2023-02-17T22:39:23.131Z,101571.38
2023-02-17T22:41:51.754Z,101568.72
2023-02-17T22:44:19.990Z,101561.69
2023-02-17T22:46:49.710Z,101567.81
2023-02-17T22:49:18.258Z,101568.69
2023-02-17T22:51:46.790Z,101571.31
2023-02-17T22:54:15.369Z,101570.44
2023-02-17T22:56:44.062Z,101564.28
2023-02-17T22:59:12.551Z,101575.72
2023-02-17T23:01:41.236Z,101565.19
2023-02-17T23:04:14.426Z,101554.66
2023-02-17T23:06:43.802Z,101558.09
2023-02-17T23:09:17.031Z,101551.97
2023-02-17T23:11:53.716Z,101557.22
2023-02-17T23:14:26.133Z,101558.09
2023-02-17T23:16:58.292Z,101562.50
2023-02-17T23:19:28.535Z,101560.69
2023-02-17T23:21:59.866Z,101556.25
2023-02-17T23:24:29.492Z,101565.06
2023-02-17T23:27:00.214Z,101566.84
2023-02-17T23:29:31.469Z,101577.38
2023-02-17T23:32:00.577Z,101577.38
2023-02-17T23:34:30.497Z,101560.72
2023-02-17T23:36:59.195Z,101556.31
2023-02-17T23:39:27.958Z,101558.94
2023-02-17T23:41:56.335Z,101566.84
2023-02-17T23:44:24.920Z,101572.13
2023-02-17T23:46:53.185Z,101566.84
2023-02-17T23:49:21.414Z,101563.31
2023-02-17T23:51:51.164Z,101559.81
2023-02-17T23:54:19.458Z,101545.75
2023-02-17T23:56:47.944Z,101544.00
2023-02-17T23:59:16.534Z,101547.44
